createdAt,value
2019-02-17T00:00:48.771Z,256.68
2019-02-17T00:03:43.456Z,240.52
2019-02-17T00:06:38.341Z,247.22
2019-02-17T00:09:33.215Z,257.52
2019-02-17T00:12:27.829Z,265.35
2019-02-17T00:15:22.243Z,261.35
2019-02-17T00:18:17.086Z,265.07
2019-02-17T00:21:11.784Z,227.32
2019-02-17T00:24:06.786Z,253.98
2019-02-17T00:27:02.481Z,233.70
2019-02-17T00:29:57.276Z,244.28
2019-02-17T00:32:51.773Z,253.25
2019-02-17T00:35:46.376Z,248.28
2019-02-17T00:38:41.487Z,259.18
2019-02-17T00:41:36.086Z,263.62
2019-02-17T00:44:30.692Z,232.50
2019-02-17T00:47:25.555Z,231.17
2019-02-17T00:50:20.634Z,225.80
2019-02-17T00:53:15.458Z,217.87
2019-02-17T00:56:10.435Z,219.03
2019-02-17T00:59:10.263Z,211.97
2019-02-17T01:02:01.964Z,236.50
2019-02-17T01:04:56.649Z,205.67
2019-02-17T01:07:51.531Z,207.55
2019-02-17T01:10:46.168Z,213.15
2019-02-17T01:13:40.786Z,207.92
2019-02-17T01:16:35.373Z,219.07
2019-02-17T01:19:30.005Z,215.92
2019-02-17T01:22:24.540Z,212.35
2019-02-17T01:25:19.226Z,211.18
2019-02-17T01:28:14.195Z,223.62
2019-02-17T01:31:09.308Z,217.37
2019-02-17T01:34:15.297Z,228.42
2019-02-17T01:37:09.785Z,250.43
2019-02-17T01:40:05.028Z,295.50
2019-02-17T01:42:59.860Z,343.23
2019-02-17T01:45:54.967Z,327.98
2019-02-17T01:48:49.734Z,186.60
2019-02-17T01:51:44.639Z,172.55
2019-02-17T01:54:39.135Z,177.60
2019-02-17T01:57:34.055Z,156.25
2019-02-17T02:00:30.040Z,158.60
2019-02-17T02:03:24.861Z,157.32
2019-02-17T02:06:19.671Z,155.10
2019-02-17T02:09:15.351Z,165.50
2019-02-17T02:12:10.338Z,173.07
2019-02-17T02:15:05.633Z,169.55
2019-02-17T02:18:00.521Z,169.82
2019-02-17T02:20:55.115Z,182.35
2019-02-17T02:23:50.062Z,204.13
2019-02-17T02:26:44.697Z,180.12
2019-02-17T02:29:41.403Z,177.00
2019-02-17T02:32:34.615Z,170.20
2019-02-17T02:35:29.347Z,178.47
2019-02-17T02:38:24.277Z,208.50
2019-02-17T02:41:18.988Z,173.43
2019-02-17T02:44:13.929Z,150.35
2019-02-17T02:47:08.509Z,161.73
2019-02-17T02:50:03.245Z,134.87
2019-02-17T02:52:57.768Z,106.45
2019-02-17T02:55:53.256Z,109.45
2019-02-17T02:58:47.807Z,121.00
2019-02-17T03:01:42.506Z,133.32
2019-02-17T03:04:37.479Z,130.95
2019-02-17T03:07:33.017Z,119.55
2019-02-17T03:10:27.913Z,123.80
2019-02-17T03:13:22.465Z,129.15
2019-02-17T03:16:17.156Z,132.07
2019-02-17T03:19:11.736Z,128.32
2019-02-17T03:22:06.471Z,118.80
2019-02-17T03:25:01.328Z,131.05
2019-02-17T03:27:56.347Z,129.20
2019-02-17T03:30:51.136Z,141.18
2019-02-17T03:33:45.728Z,113.60
2019-02-17T03:36:41.188Z,128.87
2019-02-17T03:39:36.120Z,126.00
2019-02-17T03:42:31.426Z,120.20
2019-02-17T03:45:26.588Z,112.35
2019-02-17T03:48:21.171Z,118.53
2019-02-17T03:51:15.592Z,124.78
2019-02-17T03:54:10.245Z,129.90
2019-02-17T03:57:05.262Z,138.20
2019-02-17T04:00:00.402Z,138.50
2019-02-17T04:02:55.034Z,135.68
2019-02-17T04:05:49.858Z,121.20
2019-02-17T04:08:44.544Z,135.95
2019-02-17T04:11:39.200Z,135.37
2019-02-17T04:14:34.257Z,122.60
2019-02-17T04:17:29.671Z,119.47
2019-02-17T04:20:24.582Z,141.10
2019-02-17T04:23:30.388Z,146.80
2019-02-17T04:26:15.817Z,121.22
2019-02-17T04:29:11.382Z,128.00
2019-02-17T04:32:06.108Z,137.75
2019-02-17T04:35:02.194Z,147.15
2019-02-17T04:37:57.878Z,127.90
2019-02-17T04:40:52.918Z,151.50
2019-02-17T04:43:47.814Z,154.97
2019-02-17T04:46:42.706Z,203.73
2019-02-17T04:49:37.771Z,188.30
2019-02-17T04:52:32.699Z,198.85
2019-02-17T04:55:27.658Z,202.32
2019-02-17T04:58:22.911Z,188.90
2019-02-17T05:01:18.455Z,221.18
2019-02-17T05:04:13.543Z,182.17
2019-02-17T05:07:08.200Z,191.20
2019-02-17T05:10:03.745Z,186.32
2019-02-17T05:12:58.440Z,178.75
2019-02-17T05:15:53.448Z,194.17
2019-02-17T05:18:48.420Z,194.15
2019-02-17T05:21:43.949Z,183.60
2019-02-17T05:24:39.395Z,187.47
2019-02-17T05:27:34.487Z,181.05
2019-02-17T05:30:29.432Z,188.32
2019-02-17T05:33:24.299Z,177.30
2019-02-17T05:36:19.107Z,182.27
2019-02-17T05:39:14.908Z,178.30
2019-02-17T05:42:09.753Z,177.78
2019-02-17T05:45:05.629Z,163.03
2019-02-17T05:48:00.894Z,137.25
2019-02-17T05:50:56.078Z,142.62
2019-02-17T05:53:50.803Z,138.47
2019-02-17T05:56:45.765Z,136.35
2019-02-17T05:59:40.458Z,141.73
2019-02-17T06:02:35.655Z,135.10
2019-02-17T06:05:31.122Z,130.27
2019-02-17T06:08:26.143Z,127.75
2019-02-17T06:11:21.182Z,129.03
2019-02-17T06:14:16.007Z,122.35
2019-02-17T06:17:10.709Z,132.00
2019-02-17T06:20:06.113Z,125.10
2019-02-17T06:23:01.858Z,126.58
2019-02-17T06:25:57.185Z,123.97
2019-02-17T06:28:52.091Z,121.50
2019-02-17T06:31:46.700Z,99.15
2019-02-17T06:34:41.487Z,107.07
2019-02-17T06:37:36.096Z,94.90
2019-02-17T06:40:31.201Z,107.35
2019-02-17T06:43:26.151Z,116.60
2019-02-17T06:46:25.680Z,110.65
2019-02-17T06:49:20.731Z,98.25
2019-02-17T06:52:16.912Z,99.52
2019-02-17T06:55:36.125Z,105.55
2019-02-17T06:58:31.198Z,95.55
2019-02-17T07:01:25.825Z,91.90
2019-02-17T07:04:21.296Z,99.95
2019-02-17T07:07:16.844Z,92.53
2019-02-17T07:10:11.929Z,84.72
2019-02-17T07:13:06.880Z,89.40
2019-02-17T07:16:01.619Z,94.47
2019-02-17T07:18:56.550Z,88.12
2019-02-17T07:21:51.967Z,92.00
2019-02-17T07:24:47.197Z,88.78
2019-02-17T07:27:42.158Z,72.17
2019-02-17T07:30:36.932Z,81.25
2019-02-17T07:33:32.692Z,78.97
2019-02-17T07:36:27.513Z,80.83
2019-02-17T07:39:22.803Z,76.30
2019-02-17T07:42:17.923Z,88.97
2019-02-17T07:45:12.730Z,70.32
2019-02-17T07:48:07.774Z,72.78
2019-02-17T07:51:02.822Z,73.97
2019-02-17T07:53:58.350Z,69.27
2019-02-17T07:56:53.379Z,71.17
2019-02-17T07:59:48.681Z,80.07
2019-02-17T08:02:44.103Z,71.12
2019-02-17T08:05:38.998Z,70.47
2019-02-17T08:08:33.805Z,72.65
2019-02-17T08:11:29.086Z,74.32
2019-02-17T08:14:24.368Z,66.02
2019-02-17T08:17:19.196Z,69.27
2019-02-17T08:20:14.320Z,75.03
2019-02-17T08:23:09.340Z,68.20
2019-02-17T08:26:04.133Z,68.92
2019-02-17T08:28:59.644Z,71.62
2019-02-17T08:31:56.106Z,77.15
2019-02-17T08:34:50.487Z,85.90
2019-02-17T08:37:45.969Z,84.67
2019-02-17T08:40:41.266Z,75.15
2019-02-17T08:43:36.592Z,88.92
2019-02-17T08:46:31.412Z,73.80
2019-02-17T08:49:26.443Z,96.78
2019-02-17T08:52:21.357Z,87.75
2019-02-17T08:55:16.684Z,82.05
2019-02-17T08:58:11.938Z,96.60
2019-02-17T09:01:07.512Z,95.40
2019-02-17T09:04:02.650Z,112.10
2019-02-17T09:06:57.758Z,90.07
2019-02-17T09:09:52.780Z,100.18
2019-02-17T09:12:47.805Z,96.70
2019-02-17T09:15:42.975Z,112.50
2019-02-17T09:18:38.228Z,93.92
2019-02-17T09:21:32.982Z,98.92
2019-02-17T09:24:28.186Z,104.78
2019-02-17T09:27:23.076Z,113.68
2019-02-17T09:30:19.934Z,114.00
2019-02-17T09:33:15.233Z,102.90
2019-02-17T09:36:10.596Z,115.82
2019-02-17T09:39:07.736Z,111.28
2019-02-17T09:42:02.069Z,110.12
2019-02-17T09:44:56.821Z,116.97
2019-02-17T09:47:51.388Z,116.88
2019-02-17T09:50:46.542Z,104.92
2019-02-17T09:53:41.829Z,113.77
2019-02-17T09:56:36.389Z,109.60
2019-02-17T09:59:31.223Z,110.72
2019-02-17T10:02:26.775Z,103.67
2019-02-17T10:05:21.083Z,105.30
2019-02-17T10:08:15.833Z,108.45
2019-02-17T10:11:10.634Z,107.45
2019-02-17T10:14:05.454Z,111.08
2019-02-17T10:17:00.249Z,117.35
2019-02-17T10:19:55.012Z,113.92
2019-02-17T10:22:49.860Z,99.40
2019-02-17T10:25:44.556Z,106.32
2019-02-17T10:28:42.445Z,91.87
2019-02-17T10:31:34.451Z,103.65
2019-02-17T10:34:29.505Z,99.15
2019-02-17T10:37:24.240Z,103.15
2019-02-17T10:40:19.310Z,85.80
2019-02-17T10:43:14.240Z,83.42
2019-02-17T10:46:09.215Z,79.55
2019-02-17T10:49:04.278Z,104.87
2019-02-17T10:51:58.972Z,82.92
2019-02-17T10:54:53.602Z,89.00
2019-02-17T10:57:49.409Z,81.87
2019-02-17T11:00:44.158Z,101.58
2019-02-17T11:03:38.833Z,78.05
2019-02-17T11:06:33.846Z,86.67
2019-02-17T11:09:28.564Z,88.97
2019-02-17T11:12:23.711Z,93.58
2019-02-17T11:15:20.395Z,87.88
2019-02-17T11:18:15.249Z,89.37
2019-02-17T11:21:10.210Z,86.85
2019-02-17T11:24:04.989Z,89.13
2019-02-17T11:26:59.533Z,79.90
2019-02-17T11:29:54.321Z,88.87
2019-02-17T11:32:57.697Z,87.55
2019-02-17T11:35:44.096Z,87.33
2019-02-17T11:38:38.995Z,90.60
2019-02-17T11:41:33.810Z,82.02
2019-02-17T11:44:28.643Z,83.40
2019-02-17T11:47:23.589Z,90.42
2019-02-17T11:50:19.443Z,80.45
2019-02-17T11:53:14.086Z,74.53
2019-02-17T11:56:08.418Z,93.20
2019-02-17T11:59:03.094Z,83.70
2019-02-17T12:01:57.790Z,108.30
2019-02-17T12:04:52.856Z,86.72
2019-02-17T12:07:47.779Z,82.85
2019-02-17T12:10:42.651Z,100.30
2019-02-17T12:13:37.256Z,90.70
2019-02-17T12:16:36.941Z,105.25
2019-02-17T12:19:27.516Z,82.72
2019-02-17T12:22:27.518Z,114.70
2019-02-17T12:25:30.261Z,95.35
2019-02-17T12:28:35.809Z,80.75
2019-02-17T12:31:34.188Z,95.50
2019-02-17T12:34:29.142Z,97.10
2019-02-17T12:37:24.430Z,112.10
2019-02-17T12:40:19.415Z,107.27
2019-02-17T12:43:14.269Z,93.87
2019-02-17T12:46:09.358Z,103.97
2019-02-17T12:49:04.125Z,113.37
2019-02-17T12:51:59.438Z,105.87
2019-02-17T12:54:55.996Z,109.55
2019-02-17T12:57:50.975Z,96.80
2019-02-17T13:00:45.886Z,105.15
2019-02-17T13:03:40.474Z,101.50
2019-02-17T13:06:35.440Z,118.35
2019-02-17T13:09:30.376Z,117.25
2019-02-17T13:12:25.178Z,115.20
2019-02-17T13:15:20.117Z,135.18
2019-02-17T13:18:14.691Z,136.12
2019-02-17T13:21:09.605Z,141.57
2019-02-17T13:24:04.157Z,124.87
2019-02-17T13:26:58.967Z,129.57
2019-02-17T13:29:53.793Z,139.77
2019-02-17T13:32:48.669Z,155.87
2019-02-17T13:35:43.899Z,152.72
2019-02-17T13:38:38.708Z,159.00
2019-02-17T13:41:33.597Z,178.40
2019-02-17T13:44:28.401Z,148.72
2019-02-17T13:47:23.546Z,128.40
2019-02-17T13:50:18.681Z,136.70
2019-02-17T13:53:13.691Z,183.27
2019-02-17T13:56:08.301Z,160.03
2019-02-17T13:59:03.301Z,161.28
2019-02-17T14:01:57.960Z,163.32
2019-02-17T14:04:52.575Z,179.82
2019-02-17T14:07:47.316Z,159.97
2019-02-17T14:10:42.438Z,178.72
2019-02-17T14:13:37.340Z,153.57
2019-02-17T14:16:31.870Z,149.77
2019-02-17T14:19:26.677Z,152.40
2019-02-17T14:22:21.491Z,191.43
2019-02-17T14:25:16.381Z,160.48
2019-02-17T14:28:11.166Z,146.93
2019-02-17T14:31:06.122Z,149.53
2019-02-17T14:34:01.210Z,156.78
2019-02-17T14:36:55.980Z,152.38
2019-02-17T14:39:50.850Z,134.37
2019-02-17T14:42:45.782Z,146.60
2019-02-17T14:45:40.474Z,126.12
2019-02-17T14:48:37.024Z,147.43
2019-02-17T14:51:32.052Z,134.12
2019-02-17T14:54:26.983Z,125.53
2019-02-17T14:57:22.051Z,118.15
2019-02-17T15:00:17.190Z,94.40
2019-02-17T15:03:11.710Z,95.45
2019-02-17T15:06:06.900Z,103.35
2019-02-17T15:09:01.681Z,98.03
2019-02-17T15:11:57.062Z,101.82
2019-02-17T15:14:51.588Z,93.12
2019-02-17T15:17:46.089Z,91.85
2019-02-17T15:20:40.758Z,84.90
2019-02-17T15:23:35.671Z,72.87
2019-02-17T15:26:30.500Z,84.65
2019-02-17T15:29:25.273Z,83.30
2019-02-17T15:32:20.129Z,86.22
2019-02-17T15:35:14.845Z,73.95
2019-02-17T15:38:09.727Z,65.55
2019-02-17T15:41:04.591Z,70.35
2019-02-17T15:43:59.498Z,73.07
2019-02-17T15:46:54.352Z,67.40
2019-02-17T15:49:48.949Z,71.70
2019-02-17T15:52:44.088Z,67.75
2019-02-17T15:55:39.171Z,78.55
2019-02-17T15:58:33.936Z,63.87
2019-02-17T16:01:28.878Z,77.62
2019-02-17T16:04:28.574Z,60.58
2019-02-17T16:07:18.822Z,63.52
2019-02-17T16:10:14.899Z,56.73
2019-02-17T16:13:09.800Z,57.45
2019-02-17T16:16:04.597Z,66.47
2019-02-17T16:18:59.641Z,70.87
2019-02-17T16:21:54.658Z,63.90
2019-02-17T16:24:49.128Z,65.42
2019-02-17T16:27:44.941Z,56.60
2019-02-17T16:30:39.731Z,74.22
2019-02-17T16:33:34.692Z,77.10
2019-02-17T16:36:29.752Z,73.12
2019-02-17T16:39:24.419Z,53.28
2019-02-17T16:42:18.979Z,68.85
2019-02-17T16:45:15.156Z,71.15
2019-02-17T16:48:09.930Z,65.55
2019-02-17T16:51:05.377Z,70.40
2019-02-17T16:54:00.173Z,61.68
2019-02-17T16:56:55.158Z,65.87
2019-02-17T16:59:49.718Z,58.42
2019-02-17T17:02:44.765Z,68.80
2019-02-17T17:05:39.629Z,62.65
2019-02-17T17:08:34.645Z,62.33
2019-02-17T17:11:29.232Z,56.02
2019-02-17T17:14:23.857Z,58.45
2019-02-17T17:17:18.458Z,53.05
2019-02-17T17:20:13.768Z,59.05
2019-02-17T17:23:08.423Z,49.85
2019-02-17T17:26:03.090Z,67.20
2019-02-17T17:28:57.966Z,52.78
2019-02-17T17:31:52.767Z,64.05
2019-02-17T17:34:47.587Z,81.53
2019-02-17T17:37:42.505Z,61.08
2019-02-17T17:40:37.327Z,65.78
2019-02-17T17:43:32.112Z,67.47
2019-02-17T17:46:27.125Z,61.50
2019-02-17T17:49:21.802Z,75.28
2019-02-17T17:52:17.615Z,75.65
2019-02-17T17:55:13.201Z,80.20
2019-02-17T17:58:07.923Z,76.22
2019-02-17T18:01:02.194Z,65.28
2019-02-17T18:03:57.260Z,87.85
2019-02-17T18:06:51.921Z,81.65
2019-02-17T18:09:47.294Z,94.20
2019-02-17T18:12:41.980Z,107.50
2019-02-17T18:15:36.564Z,132.75
2019-02-17T18:18:31.396Z,123.72
2019-02-17T18:21:26.188Z,149.68
2019-02-17T18:24:20.978Z,138.68
2019-02-17T18:27:15.849Z,136.95
2019-02-17T18:30:11.613Z,124.30
2019-02-17T18:33:07.381Z,113.22
2019-02-17T18:36:02.244Z,110.48
2019-02-17T18:38:56.840Z,107.30
2019-02-17T18:41:51.605Z,97.92
2019-02-17T18:44:46.665Z,101.82
2019-02-17T18:47:41.647Z,105.75
2019-02-17T18:50:36.702Z,108.00
2019-02-17T18:53:31.525Z,114.88
2019-02-17T18:56:26.400Z,112.08
2019-02-17T18:59:21.340Z,122.72
2019-02-17T19:02:16.199Z,127.47
2019-02-17T19:05:11.415Z,123.50
2019-02-17T19:08:06.340Z,160.67
2019-02-17T19:11:00.933Z,167.25
2019-02-17T19:13:55.783Z,171.98
2019-02-17T19:16:50.297Z,139.35
2019-02-17T19:19:45.103Z,114.70
2019-02-17T19:22:39.627Z,102.17
2019-02-17T19:25:34.649Z,95.50
2019-02-17T19:28:29.204Z,76.80
2019-02-17T19:31:23.770Z,75.52
2019-02-17T19:34:18.758Z,73.67
2019-02-17T19:37:14.464Z,71.15
2019-02-17T19:40:09.324Z,62.40
2019-02-17T19:43:04.129Z,62.08
2019-02-17T19:45:58.683Z,64.80
2019-02-17T19:48:53.728Z,64.55
2019-02-17T19:51:49.712Z,58.55
2019-02-17T19:54:43.864Z,62.93
2019-02-17T19:57:38.612Z,59.13
2019-02-17T20:00:33.644Z,55.95
2019-02-17T20:03:46.076Z,59.67
2019-02-17T20:06:40.942Z,54.00
2019-02-17T20:09:35.804Z,62.58
2019-02-17T20:12:30.430Z,51.60
2019-02-17T20:15:25.507Z,60.10
2019-02-17T20:18:20.354Z,70.35
2019-02-17T20:21:15.073Z,78.95
2019-02-17T20:24:09.711Z,73.02
2019-02-17T20:27:04.338Z,90.42
2019-02-17T20:29:59.120Z,85.15
2019-02-17T20:32:53.853Z,85.00
2019-02-17T20:35:48.724Z,84.97
2019-02-17T20:38:43.610Z,93.37
2019-02-17T20:41:38.463Z,95.50
2019-02-17T20:44:33.027Z,101.35
2019-02-17T20:47:27.734Z,100.20
2019-02-17T20:50:22.500Z,111.20
2019-02-17T20:53:17.382Z,111.92
2019-02-17T20:56:12.247Z,130.90
2019-02-17T20:59:07.041Z,123.10
2019-02-17T21:02:01.710Z,133.60
2019-02-17T21:04:56.670Z,163.32
2019-02-17T21:07:51.336Z,151.70
2019-02-17T21:10:45.766Z,150.60
2019-02-17T21:13:40.525Z,167.77
2019-02-17T21:16:35.130Z,166.60
2019-02-17T21:19:29.843Z,179.70
2019-02-17T21:22:24.909Z,164.95
2019-02-17T21:25:19.819Z,158.12
2019-02-17T21:28:14.405Z,164.20
2019-02-17T21:31:09.233Z,155.25
2019-02-17T21:34:04.086Z,156.05
2019-02-17T21:36:58.906Z,153.72
2019-02-17T21:39:53.735Z,169.85
2019-02-17T21:42:48.251Z,167.87
2019-02-17T21:45:43.020Z,169.77
2019-02-17T21:48:38.365Z,172.87
2019-02-17T21:51:33.215Z,168.22
2019-02-17T21:54:27.817Z,172.22
2019-02-17T21:57:22.472Z,153.50
2019-02-17T22:00:19.418Z,158.42
2019-02-17T22:03:14.764Z,178.27
2019-02-17T22:06:10.251Z,166.05
2019-02-17T22:09:05.218Z,162.92
2019-02-17T22:12:00.247Z,188.05
2019-02-17T22:14:55.021Z,187.20
2019-02-17T22:17:49.703Z,189.28
2019-02-17T22:20:44.470Z,189.97
2019-02-17T22:23:39.993Z,166.47
2019-02-17T22:26:34.545Z,141.05
2019-02-17T22:29:29.188Z,125.30
2019-02-17T22:32:24.039Z,101.10
2019-02-17T22:35:19.104Z,85.50
2019-02-17T22:38:13.731Z,79.45
2019-02-17T22:41:08.336Z,101.42
2019-02-17T22:44:03.098Z,103.65
2019-02-17T22:46:57.735Z,109.57
2019-02-17T22:49:52.615Z,159.78
2019-02-17T22:52:47.527Z,130.52
2019-02-17T22:55:42.512Z,139.50
2019-02-17T22:58:36.914Z,138.10
2019-02-17T23:01:34.793Z,135.97
2019-02-17T23:04:29.624Z,145.45
2019-02-17T23:07:24.210Z,122.67
2019-02-17T23:10:19.055Z,128.00
2019-02-17T23:13:13.908Z,115.40
2019-02-17T23:16:08.657Z,117.25
2019-02-17T23:19:03.445Z,105.50
2019-02-17T23:21:58.386Z,97.67
2019-02-17T23:24:53.237Z,92.65
2019-02-17T23:27:48.625Z,112.40
2019-02-17T23:30:43.160Z,82.67
2019-02-17T23:33:37.990Z,79.87
2019-02-17T23:36:32.595Z,81.22
2019-02-17T23:39:27.385Z,89.20
2019-02-17T23:42:21.869Z,66.62
2019-02-17T23:45:16.759Z,76.22
2019-02-17T23:48:11.940Z,82.92
2019-02-17T23:51:06.545Z,85.65
2019-02-17T23:54:01.124Z,88.05
2019-02-17T23:56:55.987Z,93.50
2019-02-17T23:59:50.609Z,93.45
